createdAt,value
2023-04-22T00:02:18.886Z,94720.40
2023-04-22T00:04:49.293Z,94714.80
2023-04-22T00:07:16.403Z,94717.20
2023-04-22T00:09:42.446Z,94713.60
2023-04-22T00:12:11.003Z,94706.00
2023-04-22T00:14:37.346Z,94708.00
2023-04-22T00:17:03.474Z,94703.00
2023-04-22T00:19:29.966Z,94704.20
2023-04-22T00:21:55.918Z,94706.40
2023-04-22T00:24:21.789Z,94701.60
2023-04-22T00:26:47.712Z,94700.40
2023-04-22T00:29:13.557Z,94703.60
2023-04-22T00:31:39.434Z,94704.60
2023-04-22T00:34:05.409Z,94697.20
2023-04-22T00:36:31.435Z,94700.40
2023-04-22T00:38:57.364Z,94699.60
2023-04-22T00:41:24.298Z,94699.60
2023-04-22T00:43:52.784Z,94697.40
2023-04-22T00:46:20.054Z,94699.80
2023-04-22T00:48:46.315Z,94698.00
2023-04-22T00:51:12.200Z,94701.00
2023-04-22T00:53:39.289Z,94697.80
2023-04-22T00:56:05.547Z,94695.20
2023-04-22T00:58:32.656Z,94695.80
2023-04-22T01:00:58.688Z,94697.80
2023-04-22T01:03:27.805Z,94701.40
2023-04-22T01:05:53.822Z,94706.60
2023-04-22T01:08:20.514Z,94702.60
2023-04-22T01:10:46.656Z,94704.60
2023-04-22T01:13:12.546Z,94702.80
2023-04-22T01:15:38.491Z,94701.40
2023-04-22T01:18:04.994Z,94703.80
2023-04-22T01:20:31.213Z,94704.40
2023-04-22T01:23:02.780Z,94699.60
2023-04-22T01:25:29.058Z,94701.40
2023-04-22T01:27:55.636Z,94698.20
2023-04-22T01:30:21.520Z,94703.60
2023-04-22T01:32:47.736Z,94706.80
2023-04-22T01:35:13.794Z,94708.80
2023-04-22T01:37:39.943Z,94705.40
2023-04-22T01:40:08.648Z,94706.00
2023-04-22T01:42:35.366Z,94704.40
2023-04-22T01:45:01.348Z,94705.00
2023-04-22T01:47:27.211Z,94705.80
2023-04-22T01:49:53.159Z,94708.40
2023-04-22T01:52:20.452Z,94706.40
2023-04-22T01:54:47.946Z,94707.60
2023-04-22T01:57:15.745Z,94708.20
2023-04-22T01:59:42.393Z,94711.60
2023-04-22T02:02:08.618Z,94712.80
2023-04-22T02:04:35.195Z,94709.60
2023-04-22T02:07:01.306Z,94713.20
2023-04-22T02:09:27.285Z,94709.20
2023-04-22T02:11:53.152Z,94707.40
2023-04-22T02:14:20.817Z,94703.00
2023-04-22T02:16:46.732Z,94705.60
2023-04-22T02:19:12.703Z,94707.40
2023-04-22T02:21:39.285Z,94711.20
2023-04-22T02:24:05.843Z,94715.00
2023-04-22T02:26:31.750Z,94716.20
2023-04-22T02:28:57.814Z,94712.60
2023-04-22T02:31:25.127Z,94713.00
2023-04-22T02:33:51.275Z,94711.80
2023-04-22T02:36:17.556Z,94713.00
2023-04-22T02:38:44.217Z,94713.60
2023-04-22T02:41:10.103Z,94710.60
2023-04-22T02:43:36.427Z,94706.60
2023-04-22T02:46:02.288Z,94707.00
2023-04-22T02:48:28.708Z,94703.00
2023-04-22T02:50:54.565Z,94702.60
2023-04-22T02:53:20.457Z,94705.80
2023-04-22T02:55:46.374Z,94707.60
2023-04-22T02:58:12.232Z,94706.00
2023-04-22T03:00:38.129Z,94704.00
2023-04-22T03:03:04.121Z,94701.60
2023-04-22T03:05:33.322Z,94700.60
2023-04-22T03:07:59.608Z,94700.40
2023-04-22T03:10:25.765Z,94698.60
2023-04-22T03:12:51.760Z,94697.60
2023-04-22T03:15:21.076Z,94698.80
2023-04-22T03:17:47.666Z,94699.80
2023-04-22T03:20:14.533Z,94703.00
2023-04-22T03:22:40.937Z,94701.40
2023-04-22T03:25:09.816Z,94693.40
2023-04-22T03:27:35.897Z,94695.40
2023-04-22T03:30:04.018Z,94693.80
2023-04-22T03:32:30.015Z,94692.20
2023-04-22T03:35:11.789Z,94693.00
2023-04-22T03:37:37.848Z,94694.00
2023-04-22T03:40:06.668Z,94697.80
2023-04-22T03:42:32.755Z,94695.80
2023-04-22T03:44:58.793Z,94699.00
2023-04-22T03:47:25.171Z,94704.40
2023-04-22T03:49:54.676Z,94703.00
2023-04-22T03:52:20.927Z,94702.00
2023-04-22T03:54:52.583Z,94708.80
2023-04-22T03:57:18.542Z,94706.80
2023-04-22T03:59:44.592Z,94708.20
2023-04-22T04:02:11.470Z,94709.40
2023-04-22T04:04:38.181Z,94709.00
2023-04-22T04:07:04.361Z,94710.00
2023-04-22T04:09:30.290Z,94705.80
2023-04-22T04:11:57.594Z,94707.80
2023-04-22T04:14:24.750Z,94707.40
2023-04-22T04:16:51.544Z,94704.80
2023-04-22T04:19:24.233Z,94710.80
2023-04-22T04:21:50.806Z,94717.00
2023-04-22T04:24:16.784Z,94714.40
2023-04-22T04:26:48.284Z,94714.80
2023-04-22T04:29:20.794Z,94712.60
2023-04-22T04:31:55.164Z,94707.00
2023-04-22T04:34:22.259Z,94707.60
2023-04-22T04:36:48.694Z,94704.80
2023-04-22T04:39:19.884Z,94700.00
2023-04-22T04:41:48.382Z,94695.00
2023-04-22T04:44:15.448Z,94697.80
2023-04-22T04:46:41.811Z,94696.60
2023-04-22T04:49:08.867Z,94698.60
2023-04-22T04:51:40.624Z,94703.20
2023-04-22T04:54:06.454Z,94709.40
2023-04-22T04:56:35.185Z,94711.80
2023-04-22T04:59:01.470Z,94711.40
2023-04-22T05:01:28.105Z,94709.20
2023-04-22T05:03:56.741Z,94702.80
2023-04-22T05:06:23.500Z,94706.20
2023-04-22T05:08:53.896Z,94704.00
2023-04-22T05:11:20.089Z,94708.20
2023-04-22T05:13:47.763Z,94703.80
2023-04-22T05:16:18.361Z,94702.00
2023-04-22T05:18:45.353Z,94700.00
2023-04-22T05:21:12.089Z,94699.20
2023-04-22T05:23:38.963Z,94694.40
2023-04-22T05:26:05.362Z,94689.00
2023-04-22T05:28:31.267Z,94690.80
2023-04-22T05:30:57.207Z,94692.60
2023-04-22T05:33:24.814Z,94693.40
2023-04-22T05:35:51.716Z,94696.00
2023-04-22T05:38:17.832Z,94697.20
2023-04-22T05:40:44.032Z,94699.40
2023-04-22T05:43:11.000Z,94700.00
2023-04-22T05:45:38.481Z,94700.60
2023-04-22T05:48:05.190Z,94705.00
2023-04-22T05:50:34.305Z,94710.20
2023-04-22T05:53:05.145Z,94704.60
2023-04-22T05:55:31.218Z,94695.00
2023-04-22T05:57:57.271Z,94697.80
2023-04-22T06:00:38.352Z,94691.00
2023-04-22T06:03:12.353Z,94692.80
2023-04-22T06:05:38.550Z,94685.80
2023-04-22T06:08:04.718Z,94694.80
2023-04-22T06:10:30.733Z,94694.60
2023-04-22T06:12:56.734Z,94697.40
2023-04-22T06:15:22.682Z,94699.20
2023-04-22T06:17:48.865Z,94697.00
2023-04-22T06:20:14.847Z,94697.80
2023-04-22T06:22:40.738Z,94702.00
2023-04-22T06:25:08.766Z,94701.40
2023-04-22T06:27:34.763Z,94697.80
2023-04-22T06:30:00.860Z,94697.60
2023-04-22T06:32:28.467Z,94694.80
2023-04-22T06:34:54.332Z,94697.40
2023-04-22T06:37:20.421Z,94702.40
2023-04-22T06:39:46.827Z,94706.60
2023-04-22T06:42:39.728Z,94707.60
2023-04-22T06:45:24.813Z,94708.00
2023-04-22T06:48:03.349Z,94709.60
2023-04-22T06:50:41.238Z,94707.80
2023-04-22T06:53:09.196Z,94713.40
2023-04-22T06:55:35.614Z,94710.20
2023-04-22T06:58:01.686Z,94712.40
2023-04-22T07:00:28.437Z,94713.20
2023-04-22T07:02:54.523Z,94714.40
2023-04-22T07:05:21.339Z,94717.80
2023-04-22T07:07:47.398Z,94720.40
2023-04-22T07:10:17.362Z,94722.80
2023-04-22T07:12:54.580Z,94726.00
2023-04-22T07:15:20.553Z,94722.40
2023-04-22T07:17:46.535Z,94721.60
2023-04-22T07:20:12.563Z,94722.00
2023-04-22T07:22:38.624Z,94720.80
2023-04-22T07:25:06.713Z,94725.20
2023-04-22T07:27:37.019Z,94729.60
2023-04-22T07:30:05.563Z,94727.00
2023-04-22T07:32:31.398Z,94718.00
2023-04-22T07:34:57.267Z,94718.20
2023-04-22T07:37:23.280Z,94717.60
2023-04-22T07:39:49.255Z,94720.60
2023-04-22T07:42:15.554Z,94716.60
2023-04-22T07:44:41.464Z,94724.00
2023-04-22T07:47:07.863Z,94722.80
2023-04-22T07:49:33.906Z,94726.60
2023-04-22T07:51:59.843Z,94721.00
2023-04-22T07:54:25.714Z,94719.00
2023-04-22T07:56:51.648Z,94718.00
2023-04-22T07:59:17.506Z,94709.80
2023-04-22T08:01:45.577Z,94705.60
2023-04-22T08:04:12.573Z,94704.60
2023-04-22T08:06:38.849Z,94701.20
2023-04-22T08:09:04.982Z,94710.40
2023-04-22T08:11:30.974Z,94707.20
2023-04-22T08:13:56.857Z,94709.80
2023-04-22T08:16:23.011Z,94710.40
2023-04-22T08:18:49.104Z,94709.20
2023-04-22T08:21:15.049Z,94705.80
2023-04-22T08:23:41.075Z,94712.40
2023-04-22T08:26:07.738Z,94712.80
2023-04-22T08:28:34.786Z,94705.20
2023-04-22T08:31:00.725Z,94706.60
2023-04-22T08:33:27.402Z,94706.60
2023-04-22T08:35:53.398Z,94705.80
2023-04-22T08:38:19.320Z,94712.60
2023-04-22T08:40:45.629Z,94715.00
2023-04-22T08:43:12.160Z,94721.40
2023-04-22T08:45:39.898Z,94714.20
2023-04-22T08:48:08.791Z,94721.80
2023-04-22T08:50:40.766Z,94716.00
2023-04-22T08:53:06.728Z,94716.80
2023-04-22T08:55:35.173Z,94717.80
2023-04-22T08:58:04.006Z,94710.80
2023-04-22T09:00:31.690Z,94713.00
2023-04-22T09:03:04.755Z,94712.00
2023-04-22T09:05:35.754Z,94707.40
2023-04-22T09:08:03.366Z,94708.40
2023-04-22T09:10:33.991Z,94704.00
2023-04-22T09:13:00.740Z,94710.60
2023-04-22T09:15:27.032Z,94704.80
2023-04-22T09:17:53.451Z,94708.60
2023-04-22T09:20:26.869Z,94708.00
2023-04-22T09:22:55.821Z,94705.60
2023-04-22T09:25:26.257Z,94703.00
2023-04-22T09:27:58.843Z,94700.60
2023-04-22T09:30:34.227Z,94699.00
2023-04-22T09:33:03.739Z,94697.60
2023-04-22T09:35:32.812Z,94697.40
2023-04-22T09:38:02.174Z,94702.80
2023-04-22T09:40:31.616Z,94702.40
2023-04-22T09:43:01.538Z,94706.60
2023-04-22T09:45:37.514Z,94697.40
2023-04-22T09:48:10.545Z,94695.40
2023-04-22T09:50:39.910Z,94691.60
2023-04-22T09:53:09.424Z,94690.00
2023-04-22T09:55:40.936Z,94689.00
2023-04-22T09:58:10.552Z,94692.60
2023-04-22T10:00:53.540Z,94684.60
2023-04-22T10:03:19.997Z,94690.60
2023-04-22T10:05:46.266Z,94685.00
2023-04-22T10:08:15.440Z,94681.20
2023-04-22T10:10:43.046Z,94683.60
2023-04-22T10:13:09.165Z,94679.80
2023-04-22T10:15:40.797Z,94682.00
2023-04-22T10:18:12.289Z,94682.60
2023-04-22T10:20:40.865Z,94676.20
2023-04-22T10:23:18.980Z,94672.00
2023-04-22T10:25:55.427Z,94677.40
2023-04-22T10:28:24.299Z,94672.20
2023-04-22T10:30:51.025Z,94670.00
2023-04-22T10:33:34.124Z,94673.40
2023-04-22T10:36:17.040Z,94671.20
2023-04-22T10:38:52.291Z,94669.00
2023-04-22T10:41:24.721Z,94669.40
2023-04-22T10:43:58.929Z,94667.60
2023-04-22T10:46:34.934Z,94667.20
2023-04-22T10:49:17.748Z,94660.20
2023-04-22T10:51:48.558Z,94659.80
2023-04-22T10:54:36.253Z,94658.80
2023-04-22T10:57:11.282Z,94653.60
2023-04-22T10:59:49.542Z,94657.40
2023-04-22T11:02:18.306Z,94656.20
2023-04-22T11:04:45.081Z,94654.40
2023-04-22T11:07:21.853Z,94654.40
2023-04-22T11:10:06.355Z,94654.80
2023-04-22T11:12:35.072Z,94655.00
2023-04-22T11:15:05.555Z,94649.80
2023-04-22T11:17:31.821Z,94648.20
2023-04-22T11:19:58.476Z,94644.00
2023-04-22T11:22:24.976Z,94649.60
2023-04-22T11:24:59.273Z,94636.20
2023-04-22T11:27:26.781Z,94640.60
2023-04-22T11:30:12.636Z,94644.40
2023-04-22T11:32:42.600Z,94636.00
2023-04-22T11:35:11.865Z,94635.20
2023-04-22T11:37:55.397Z,94632.20
2023-04-22T11:42:56.083Z,94637.80
2023-04-22T11:45:22.595Z,94638.00
2023-04-22T11:47:50.887Z,94638.20
2023-04-22T11:50:21.384Z,94637.20
2023-04-22T11:53:02.780Z,94633.00
2023-04-22T11:55:34.939Z,94634.60
2023-04-22T11:58:09.224Z,94635.60
2023-04-22T12:00:41.274Z,94629.20
2023-04-22T12:03:16.959Z,94632.20
2023-04-22T12:06:02.585Z,94627.40
2023-04-22T12:08:36.083Z,94629.40
2023-04-22T12:11:06.402Z,94625.00
2023-04-22T12:13:45.543Z,94620.80
2023-04-22T12:16:18.518Z,94621.80
2023-04-22T12:18:47.416Z,94622.80
2023-04-22T12:21:21.515Z,94621.80
2023-04-22T12:23:51.502Z,94618.00
2023-04-22T12:26:22.113Z,94615.60
2023-04-22T12:28:50.476Z,94619.60
2023-04-22T12:31:17.779Z,94617.80
2023-04-22T12:33:45.640Z,94613.80
2023-04-22T12:36:12.158Z,94612.60
2023-04-22T12:38:38.385Z,94608.60
2023-04-22T12:41:06.055Z,94610.40
2023-04-22T12:43:35.591Z,94610.20
2023-04-22T12:46:06.868Z,94613.00
2023-04-22T12:48:33.076Z,94608.60
2023-04-22T12:50:59.435Z,94605.80
2023-04-22T12:53:27.301Z,94605.40
2023-04-22T12:55:54.088Z,94604.20
2023-04-22T12:58:20.314Z,94601.00
2023-04-22T13:00:46.317Z,94598.60
2023-04-22T13:03:12.536Z,94596.40
2023-04-22T13:05:41.403Z,94594.60
2023-04-22T13:08:08.205Z,94592.00
2023-04-22T13:10:34.915Z,94593.20
2023-04-22T13:13:15.945Z,94588.60
2023-04-22T13:15:46.180Z,94592.80
2023-04-22T13:18:12.253Z,94584.20
2023-04-22T13:20:39.376Z,94590.40
2023-04-22T13:23:05.260Z,94586.40
2023-04-22T13:25:31.569Z,94583.00
2023-04-22T13:27:57.500Z,94579.40
2023-04-22T13:30:23.420Z,94582.80
2023-04-22T13:32:49.606Z,94575.20
2023-04-22T13:35:17.802Z,94567.00
2023-04-22T13:37:43.841Z,94570.80
2023-04-22T13:40:10.406Z,94560.00
2023-04-22T13:42:36.280Z,94561.40
2023-04-22T13:45:02.421Z,94559.80
2023-04-22T13:47:28.687Z,94561.20
2023-04-22T13:49:54.632Z,94554.60
2023-04-22T13:52:21.033Z,94561.40
2023-04-22T13:54:46.955Z,94558.60
2023-04-22T13:57:12.829Z,94556.40
2023-04-22T13:59:40.786Z,94551.00
2023-04-22T14:02:07.286Z,94548.80
2023-04-22T14:04:33.270Z,94544.00
2023-04-22T14:06:59.201Z,94540.60
2023-04-22T14:09:25.590Z,94534.60
2023-04-22T14:11:51.481Z,94534.00
2023-04-22T14:14:17.378Z,94535.00
2023-04-22T14:16:43.307Z,94539.40
2023-04-22T14:19:09.508Z,94536.60
2023-04-22T14:21:35.514Z,94534.60
2023-04-22T14:24:01.488Z,94535.00
2023-04-22T14:26:27.435Z,94535.80
2023-04-22T14:28:53.328Z,94535.40
2023-04-22T14:31:19.391Z,94537.60
2023-04-22T14:33:45.350Z,94536.60
2023-04-22T14:36:11.285Z,94537.20
2023-04-22T14:38:37.291Z,94538.40
2023-04-22T14:41:05.404Z,94537.40
2023-04-22T14:43:33.249Z,94539.40
2023-04-22T14:46:00.240Z,94537.20
2023-04-22T14:48:30.197Z,94535.00
2023-04-22T14:50:57.465Z,94534.80
2023-04-22T14:53:23.375Z,94533.40
2023-04-22T14:55:49.225Z,94530.20
2023-04-22T14:58:15.050Z,94529.80
2023-04-22T15:00:41.010Z,94533.40
2023-04-22T15:03:07.013Z,94530.40
2023-04-22T15:05:32.963Z,94525.00
2023-04-22T15:07:59.001Z,94530.80
2023-04-22T15:10:26.149Z,94527.40
2023-04-22T15:12:53.313Z,94530.40
2023-04-22T15:15:19.494Z,94530.80
2023-04-22T15:17:45.702Z,94528.60
2023-04-22T15:20:13.590Z,94528.80
2023-04-22T15:22:40.899Z,94530.60
2023-04-22T15:25:09.188Z,94524.60
2023-04-22T15:27:36.801Z,94522.60
2023-04-22T15:30:05.353Z,94520.00
2023-04-22T15:32:31.534Z,94523.00
2023-04-22T15:34:57.418Z,94520.80
2023-04-22T15:37:23.543Z,94522.80
2023-04-22T15:39:49.440Z,94525.40
2023-04-22T15:42:15.324Z,94524.00
2023-04-22T15:44:42.552Z,94522.60
2023-04-22T15:47:09.032Z,94528.00
2023-04-22T15:49:37.832Z,94526.40
2023-04-22T15:52:04.361Z,94528.20
2023-04-22T15:54:30.292Z,94532.20
2023-04-22T15:56:57.012Z,94528.00
2023-04-22T15:59:22.926Z,94526.00
2023-04-22T16:02:13.848Z,94529.40
2023-04-22T16:04:40.155Z,94532.00
2023-04-22T16:07:06.327Z,94532.80
2023-04-22T16:09:32.184Z,94537.00
2023-04-22T16:12:02.453Z,94542.20
2023-04-22T16:14:28.324Z,94540.60
2023-04-22T16:16:54.349Z,94542.80
2023-04-22T16:19:20.339Z,94544.60
2023-04-22T16:21:46.268Z,94542.00
2023-04-22T16:24:13.870Z,94541.20
2023-04-22T16:26:42.339Z,94542.00
2023-04-22T16:29:08.244Z,94540.20
2023-04-22T16:31:34.452Z,94538.40
2023-04-22T16:34:00.463Z,94540.20
2023-04-22T16:36:26.354Z,94534.20
2023-04-22T16:38:52.219Z,94531.60
2023-04-22T16:41:19.413Z,94532.80
2023-04-22T16:43:45.399Z,94529.00
2023-04-22T16:46:11.416Z,94525.60
2023-04-22T16:48:37.429Z,94524.00
2023-04-22T16:51:03.746Z,94526.00
2023-04-22T16:53:30.497Z,94525.40
2023-04-22T16:55:56.725Z,94521.60
2023-04-22T16:58:22.841Z,94523.20
2023-04-22T17:00:48.695Z,94523.80
2023-04-22T17:03:15.082Z,94526.40
2023-04-22T17:05:41.181Z,94529.40
2023-04-22T17:08:07.064Z,94527.40
2023-04-22T17:10:34.291Z,94526.00
2023-04-22T17:13:00.748Z,94522.80
2023-04-22T17:15:26.772Z,94527.40
2023-04-22T17:17:52.665Z,94527.40
2023-04-22T17:20:18.605Z,94527.00
2023-04-22T17:22:44.461Z,94528.00
2023-04-22T17:25:10.373Z,94526.20
2023-04-22T17:27:36.301Z,94525.40
2023-04-22T17:30:02.711Z,94524.00
2023-04-22T17:32:28.743Z,94522.00
2023-04-22T17:34:54.803Z,94528.60
2023-04-22T17:37:20.771Z,94535.80
2023-04-22T17:39:46.778Z,94534.60
2023-04-22T17:42:13.442Z,94537.80
2023-04-22T17:44:40.490Z,94542.40
2023-04-22T17:47:07.516Z,94541.60
2023-04-22T17:49:33.735Z,94544.20
2023-04-22T17:51:59.778Z,94549.60
2023-04-22T17:54:25.675Z,94542.80
2023-04-22T17:56:51.623Z,94544.20
2023-04-22T17:59:18.005Z,94545.80
2023-04-22T18:01:44.073Z,94546.60
2023-04-22T18:04:10.131Z,94546.60
2023-04-22T18:06:36.219Z,94546.60
2023-04-22T18:09:02.180Z,94549.20
2023-04-22T18:11:28.185Z,94551.20
2023-04-22T18:13:54.544Z,94557.20
2023-04-22T18:16:20.838Z,94560.80
2023-04-22T18:18:46.777Z,94562.80
2023-04-22T18:21:12.772Z,94566.40
2023-04-22T18:23:38.721Z,94565.80
2023-04-22T18:26:08.994Z,94566.80
2023-04-22T18:28:38.940Z,94568.40
2023-04-22T18:31:07.322Z,94570.00
2023-04-22T18:33:33.850Z,94569.60
2023-04-22T18:36:00.228Z,94570.20
2023-04-22T18:38:26.512Z,94568.40
2023-04-22T18:40:54.264Z,94567.20
2023-04-22T18:43:20.279Z,94571.60
2023-04-22T18:45:46.190Z,94575.00
2023-04-22T18:48:12.098Z,94574.80
2023-04-22T18:50:38.091Z,94576.00
2023-04-22T18:53:04.133Z,94579.60
2023-04-22T18:55:30.161Z,94581.40
2023-04-22T18:57:56.006Z,94586.20
2023-04-22T19:00:22.184Z,94587.60
2023-04-22T19:02:48.343Z,94591.00
2023-04-22T19:05:14.466Z,94594.60
2023-04-22T19:07:42.558Z,94598.80
2023-04-22T19:10:10.622Z,94600.60
2023-04-22T19:12:36.496Z,94602.00
2023-04-22T19:15:02.763Z,94603.60
2023-04-22T19:17:28.929Z,94607.60
2023-04-22T19:19:54.892Z,94607.80
2023-04-22T19:22:21.581Z,94611.80
2023-04-22T19:24:47.497Z,94613.80
2023-04-22T19:27:14.105Z,94615.80
2023-04-22T19:29:42.251Z,94615.60
2023-04-22T19:32:10.224Z,94618.80
2023-04-22T19:34:37.556Z,94623.20
2023-04-22T19:37:03.935Z,94625.80
2023-04-22T19:39:30.557Z,94632.80
2023-04-22T19:41:57.747Z,94635.80
2023-04-22T19:44:24.557Z,94638.60
2023-04-22T19:46:50.555Z,94637.80
2023-04-22T19:49:17.388Z,94640.00
2023-04-22T19:51:45.171Z,94641.20
2023-04-22T19:54:13.129Z,94641.00
2023-04-22T19:56:40.640Z,94638.20
2023-04-22T19:59:07.183Z,94641.40
2023-04-22T20:01:33.930Z,94648.60
2023-04-22T20:04:00.957Z,94650.00
2023-04-22T20:06:30.952Z,94654.20
2023-04-22T20:08:59.099Z,94651.40
2023-04-22T20:11:25.775Z,94652.40
2023-04-22T20:13:52.541Z,94651.80
2023-04-22T20:16:20.064Z,94657.00
2023-04-22T20:18:46.135Z,94660.20
2023-04-22T20:21:13.531Z,94664.20
2023-04-22T20:23:41.657Z,94659.80
2023-04-22T20:26:08.692Z,94667.00
2023-04-22T20:28:51.158Z,94667.80
2023-04-22T20:31:19.796Z,94666.80
2023-04-22T20:33:46.130Z,94664.20
2023-04-22T20:36:16.333Z,94660.00
2023-04-22T20:38:46.674Z,94656.20
2023-04-22T20:41:13.088Z,94657.80
2023-04-22T20:43:38.979Z,94660.60
2023-04-22T20:46:04.940Z,94657.80
2023-04-22T20:48:30.822Z,94660.20
2023-04-22T20:50:56.771Z,94655.20
2023-04-22T20:53:23.911Z,94654.80
2023-04-22T20:55:50.262Z,94652.40
2023-04-22T20:58:16.330Z,94651.00
2023-04-22T21:00:42.755Z,94646.80
2023-04-22T21:03:09.485Z,94651.00
2023-04-22T21:05:42.561Z,94654.20
2023-04-22T21:08:25.177Z,94650.80
2023-04-22T21:10:54.109Z,94653.80
2023-04-22T21:13:21.151Z,94659.00
2023-04-22T21:15:58.584Z,94657.20
2023-04-22T21:18:25.927Z,94661.60
2023-04-22T21:20:53.223Z,94664.00
2023-04-22T21:23:19.918Z,94664.40
2023-04-22T21:25:49.842Z,94665.00
2023-04-22T21:28:16.969Z,94667.00
2023-04-22T21:30:43.869Z,94667.80
2023-04-22T21:33:10.069Z,94668.00
2023-04-22T21:35:36.108Z,94669.60
2023-04-22T21:38:02.395Z,94670.80
2023-04-22T21:40:28.600Z,94673.80
2023-04-22T21:42:54.750Z,94678.60
2023-04-22T21:45:20.828Z,94678.80
2023-04-22T21:47:46.728Z,94682.00
2023-04-22T21:50:12.724Z,94679.00
2023-04-22T21:52:38.824Z,94682.60
2023-04-22T21:55:05.952Z,94684.20
2023-04-22T21:57:31.906Z,94684.20
2023-04-22T21:59:57.865Z,94684.60
2023-04-22T22:02:25.807Z,94690.80
2023-04-22T22:04:52.254Z,94686.80
2023-04-22T22:07:18.906Z,94684.40
2023-04-22T22:09:45.769Z,94682.40
2023-04-22T22:12:28.729Z,94688.00
2023-04-22T22:14:54.784Z,94687.80
2023-04-22T22:17:20.730Z,94691.20
2023-04-22T22:19:48.310Z,94683.20
2023-04-22T22:22:14.172Z,94685.80
2023-04-22T22:24:40.297Z,94687.00
2023-04-22T22:27:07.430Z,94689.60
2023-04-22T22:29:33.551Z,94689.20
2023-04-22T22:31:59.456Z,94686.80
2023-04-22T22:34:25.438Z,94688.40
2023-04-22T22:36:51.396Z,94689.60
2023-04-22T22:39:17.441Z,94696.20
2023-04-22T22:41:44.044Z,94694.20
2023-04-22T22:44:10.427Z,94699.40
2023-04-22T22:46:37.091Z,94699.20
2023-04-22T22:49:02.963Z,94698.40
2023-04-22T22:51:29.255Z,94701.20
2023-04-22T22:53:55.411Z,94702.20
2023-04-22T22:56:21.287Z,94698.80
2023-04-22T22:58:47.548Z,94701.20
2023-04-22T23:01:14.862Z,94699.40
2023-04-22T23:03:41.013Z,94694.40
2023-04-22T23:06:07.208Z,94694.80
2023-04-22T23:08:33.201Z,94695.00
2023-04-22T23:11:00.143Z,94687.80
2023-04-22T23:13:27.180Z,94690.80
2023-04-22T23:15:53.131Z,94697.40
2023-04-22T23:18:19.207Z,94700.40
2023-04-22T23:20:47.339Z,94699.20
2023-04-22T23:23:15.955Z,94697.60
2023-04-22T23:25:42.276Z,94699.80
2023-04-22T23:28:08.643Z,94699.80
2023-04-22T23:30:34.997Z,94704.80
2023-04-22T23:33:03.797Z,94704.00
2023-04-22T23:35:32.518Z,94701.00
2023-04-22T23:38:00.115Z,94698.60
2023-04-22T23:40:26.366Z,94694.80
2023-04-22T23:42:52.292Z,94694.80
2023-04-22T23:45:18.161Z,94690.80
2023-04-22T23:47:44.187Z,94690.80
2023-04-22T23:50:11.406Z,94693.40
2023-04-22T23:52:40.416Z,94692.60
2023-04-22T23:55:09.649Z,94692.60
2023-04-22T23:57:38.894Z,94696.60
